Baring, MO

9:57 PM CDT on July 23, 2014 (GMT -0500)
Kirksville Regional (KIRK) Elev 965 ft | 40.10 °N, 92.55 °W | Change Station

Current weather conditions updated 1 hour ago

Clear
Clear
67 °F
Feels Like 67 °F
N
5
Wind Variable Wind from NE

Tomorrow is forecast to be Cooler than today.

Today
High -- | Low -- °F
--% Chance of Precip.
Yesterday
High -- | Low -- °F
Precip. -- in
5:58 AM 8:31 PM
Waning Crescent, 7% visible
Pressure 30.15 in
Visibility 10.0 miles
Clouds Clear
Dew Point 60 °F
Humidity 79%
Rainfall 0.00 in
Snow Depth Not available.
UV 0 out of 12
Pollen 5.40 out of 12
Air Quality Not available.
Flu Activity Not available.
METAR KIRK 240155Z AUTO 04004KT 10SM CLR 19/16 A3016 RMK AO2 SLP210 T01940156

More Conditions Fewer Conditions

Pressure 30.15 in
Visibility 10.0 miles
Clouds Clear
Dew Point 60 °F
Humidity 79%
Rainfall 0.00 in
Snow Depth Not available.
UV 0 out of 12
Pollen 5.40 out of 12
Air Quality Not available.
Flu Activity Not available.
METAR KIRK 240155Z AUTO 04004KT 10SM CLR 19/16 A3016 RMK AO2 SLP210 T01940156

More Conditions Fewer Conditions

10-Day Weather Forecast

Almanac

Astronomy

Jul. 23, 2014 Rise Set
Actual Time 5:58 AM CDT 8:31 PM CDT
Civil Twilight 5:27 AM CDT 9:03 PM CDT
Nautical Twilight 4:48 AM CDT 9:41 PM CDT
Astronomical Twilight 4:04 AM CDT 10:25 PM CDT
Moon 3:18 AM CDT (7/23) 6:00 PM CDT (7/23)
Length of Visible Light 15h 35m
Length of Day
14h 33m
Tomorrow will be 1m 43s shorter.
Waning Crescent, 7% of the Moon is Illuminated
Today
Waning Crescent
Jul 26
New
Aug 3
First Quarter
Aug 10
Full
Aug 17
Last Quarter

Today's Extremes

State Highs State Lows

Community

WunderPhotos

Upload Photos

1,736,864 photos uploaded!

Nearby

Snow Depth

Station Depth Elevation
No new snow has been reported.

Earthquake Activity

City Distance Mag. Time & Date
No recent earthquake activity has been reported nearby.
Minimum magnitude displayed is 2.5.

Coastal Water Temperatures

Place Temperature
No Stations Reporting

Nearby Weather Stations

Station Location Temp. Dew Point Humidity Wind Precip. Elev Updated Type
La Plata, La Plata, MO 67.5 °F 60 °F 76% North  at  0.0 mph 0.00 in / hr 928 ft 9:57 PM CDT Rapid Fire
Lancaster, MO 65.6 °F 60 °F 83% ENE  at  0.0 mph - / hr 915 ft 9:49 PM CDT Normal

Show More Stations Show Fewer Stations